sensor_id;sensor_type;location;lat;lon;timestamp;P1;durP1;ratioP1;P2;durP2;ratioP2
66946;SDS011;53853;51.982;5.928;2024-01-30T00:01:15;13.88;;;11.93;;
66946;SDS011;53853;51.982;5.928;2024-01-30T00:03:46;13.98;;;11.80;;
66946;SDS011;53853;51.982;5.928;2024-01-30T00:06:18;14.13;;;12.23;;
66946;SDS011;53853;51.982;5.928;2024-01-30T00:08:48;13.50;;;12.10;;
66946;SDS011;53853;51.982;5.928;2024-01-30T00:11:19;14.48;;;12.88;;
66946;SDS011;53853;51.982;5.928;2024-01-30T00:13:51;14.18;;;12.63;;
66946;SDS011;53853;51.982;5.928;2024-01-30T00:16:25;18.45;;;14.27;;
66946;SDS011;53853;51.982;5.928;2024-01-30T00:18:55;13.60;;;12.17;;
66946;SDS011;53853;51.982;5.928;2024-01-30T00:21:27;15.15;;;12.85;;
66946;SDS011;53853;51.982;5.928;2024-01-30T00:23:57;14.43;;;12.63;;
66946;SDS011;53853;51.982;5.928;2024-01-30T00:26:27;14.68;;;12.05;;
66946;SDS011;53853;51.982;5.928;2024-01-30T00:28:57;15.57;;;12.00;;
66946;SDS011;53853;51.982;5.928;2024-01-30T00:31:30;13.60;;;12.20;;
66946;SDS011;53853;51.982;5.928;2024-01-30T00:34:00;13.95;;;11.85;;
66946;SDS011;53853;51.982;5.928;2024-01-30T00:36:30;12.23;;;10.60;;
66946;SDS011;53853;51.982;5.928;2024-01-30T00:39:00;13.75;;;12.32;;
66946;SDS011;53853;51.982;5.928;2024-01-30T00:41:32;15.07;;;11.73;;
66946;SDS011;53853;51.982;5.928;2024-01-30T00:44:01;13.55;;;11.88;;
66946;SDS011;53853;51.982;5.928;2024-01-30T00:46:34;13.60;;;12.05;;
66946;SDS011;53853;51.982;5.928;2024-01-30T00:49:04;14.35;;;10.90;;
66946;SDS011;53853;51.982;5.928;2024-01-30T00:51:34;13.43;;;11.80;;
66946;SDS011;53853;51.982;5.928;2024-01-30T00:54:04;13.63;;;11.88;;
66946;SDS011;53853;51.982;5.928;2024-01-30T00:56:34;15.30;;;13.48;;
66946;SDS011;53853;51.982;5.928;2024-01-30T00:59:04;14.30;;;12.25;;
66946;SDS011;53853;51.982;5.928;2024-01-30T01:01:36;14.77;;;11.95;;
66946;SDS011;53853;51.982;5.928;2024-01-30T01:04:06;14.48;;;12.38;;
66946;SDS011;53853;51.982;5.928;2024-01-30T01:06:36;14.02;;;11.75;;
66946;SDS011;53853;51.982;5.928;2024-01-30T01:09:08;12.55;;;11.00;;
66946;SDS011;53853;51.982;5.928;2024-01-30T01:11:38;12.73;;;11.43;;
66946;SDS011;53853;51.982;5.928;2024-01-30T01:14:08;17.52;;;11.63;;
66946;SDS011;53853;51.982;5.928;2024-01-30T01:16:40;14.43;;;11.95;;
66946;SDS011;53853;51.982;5.928;2024-01-30T01:19:11;12.20;;;10.90;;
66946;SDS011;53853;51.982;5.928;2024-01-30T01:21:41;15.30;;;11.80;;
66946;SDS011;53853;51.982;5.928;2024-01-30T01:24:10;14.35;;;11.48;;
66946;SDS011;53853;51.982;5.928;2024-01-30T01:26:40;13.68;;;10.90;;
66946;SDS011;53853;51.982;5.928;2024-01-30T01:29:10;13.45;;;12.05;;
66946;SDS011;53853;51.982;5.928;2024-01-30T01:31:44;12.00;;;10.77;;
66946;SDS011;53853;51.982;5.928;2024-01-30T01:34:14;12.27;;;10.65;;
66946;SDS011;53853;51.982;5.928;2024-01-30T01:36:44;12.18;;;10.88;;
66946;SDS011;53853;51.982;5.928;2024-01-30T01:39:13;12.13;;;10.43;;
66946;SDS011;53853;51.982;5.928;2024-01-30T01:41:43;12.07;;;9.43;;
66946;SDS011;53853;51.982;5.928;2024-01-30T01:44:13;13.68;;;10.70;;
66946;SDS011;53853;51.982;5.928;2024-01-30T01:46:46;13.38;;;10.75;;
66946;SDS011;53853;51.982;5.928;2024-01-30T01:49:16;13.20;;;10.35;;
66946;SDS011;53853;51.982;5.928;2024-01-30T01:51:46;13.52;;;10.68;;
66946;SDS011;53853;51.982;5.928;2024-01-30T01:54:17;14.40;;;12.98;;
66946;SDS011;53853;51.982;5.928;2024-01-30T01:56:47;13.93;;;12.40;;
66946;SDS011;53853;51.982;5.928;2024-01-30T01:59:17;13.48;;;11.30;;
66946;SDS011;53853;51.982;5.928;2024-01-30T02:01:51;12.75;;;11.02;;
66946;SDS011;53853;51.982;5.928;2024-01-30T02:04:24;13.20;;;11.38;;
66946;SDS011;53853;51.982;5.928;2024-01-30T02:06:53;11.90;;;10.07;;
66946;SDS011;53853;51.982;5.928;2024-01-30T02:09:23;14.00;;;10.10;;
66946;SDS011;53853;51.982;5.928;2024-01-30T02:11:53;11.88;;;10.20;;
66946;SDS011;53853;51.982;5.928;2024-01-30T02:14:24;11.55;;;9.52;;
66946;SDS011;53853;51.982;5.928;2024-01-30T02:16:56;11.90;;;10.15;;
66946;SDS011;53853;51.982;5.928;2024-01-30T02:19:26;10.18;;;9.18;;
66946;SDS011;53853;51.982;5.928;2024-01-30T02:21:58;11.00;;;9.77;;
66946;SDS011;53853;51.982;5.928;2024-01-30T02:24:28;9.45;;;8.45;;
66946;SDS011;53853;51.982;5.928;2024-01-30T02:26:58;10.65;;;9.52;;
66946;SDS011;53853;51.982;5.928;2024-01-30T02:29:28;11.18;;;9.98;;
66946;SDS011;53853;51.982;5.928;2024-01-30T02:31:58;11.18;;;8.25;;
66946;SDS011;53853;51.982;5.928;2024-01-30T02:34:27;10.70;;;9.60;;
66946;SDS011;53853;51.982;5.928;2024-01-30T02:37:00;11.13;;;9.35;;
66946;SDS011;53853;51.982;5.928;2024-01-30T02:39:30;10.27;;;7.93;;
66946;SDS011;53853;51.982;5.928;2024-01-30T02:41:59;9.88;;;8.45;;
66946;SDS011;53853;51.982;5.928;2024-01-30T02:44:29;9.60;;;8.60;;
66946;SDS011;53853;51.982;5.928;2024-01-30T02:46:59;10.18;;;8.65;;
66946;SDS011;53853;51.982;5.928;2024-01-30T02:49:29;10.77;;;9.38;;
66946;SDS011;53853;51.982;5.928;2024-01-30T02:52:01;10.55;;;8.55;;
66946;SDS011;53853;51.982;5.928;2024-01-30T02:54:32;9.77;;;8.77;;
66946;SDS011;53853;51.982;5.928;2024-01-30T02:57:01;8.93;;;8.02;;
66946;SDS011;53853;51.982;5.928;2024-01-30T02:59:31;9.27;;;8.23;;
66946;SDS011;53853;51.982;5.928;2024-01-30T03:02:02;9.80;;;8.77;;
66946;SDS011;53853;51.982;5.928;2024-01-30T03:04:32;11.27;;;8.75;;
66946;SDS011;53853;51.982;5.928;2024-01-30T03:07:04;10.13;;;8.10;;
66946;SDS011;53853;51.982;5.928;2024-01-30T03:09:34;8.77;;;7.53;;
66946;SDS011;53853;51.982;5.928;2024-01-30T03:12:05;10.40;;;9.30;;
66946;SDS011;53853;51.982;5.928;2024-01-30T03:14:35;11.15;;;8.55;;
66946;SDS011;53853;51.982;5.928;2024-01-30T03:17:05;10.13;;;8.98;;
66946;SDS011;53853;51.982;5.928;2024-01-30T03:19:35;9.57;;;7.65;;
66946;SDS011;53853;51.982;5.928;2024-01-30T03:22:07;8.70;;;7.50;;
66946;SDS011;53853;51.982;5.928;2024-01-30T03:24:37;8.43;;;7.50;;
66946;SDS011;53853;51.982;5.928;2024-01-30T03:27:07;8.57;;;7.78;;
66946;SDS011;53853;51.982;5.928;2024-01-30T03:29:37;10.43;;;8.98;;
66946;SDS011;53853;51.982;5.928;2024-01-30T03:32:07;9.25;;;8.23;;
66946;SDS011;53853;51.982;5.928;2024-01-30T03:34:37;10.85;;;7.65;;
66946;SDS011;53853;51.982;5.928;2024-01-30T03:37:09;11.00;;;8.75;;
66946;SDS011;53853;51.982;5.928;2024-01-30T03:39:39;12.35;;;8.90;;
66946;SDS011;53853;51.982;5.928;2024-01-30T03:42:09;9.77;;;8.77;;
66946;SDS011;53853;51.982;5.928;2024-01-30T03:44:38;8.82;;;7.93;;
66946;SDS011;53853;51.982;5.928;2024-01-30T03:47:08;9.50;;;7.50;;
66946;SDS011;53853;51.982;5.928;2024-01-30T03:49:38;13.00;;;8.13;;
66946;SDS011;53853;51.982;5.928;2024-01-30T03:52:11;9.10;;;7.93;;
66946;SDS011;53853;51.982;5.928;2024-01-30T03:54:41;10.05;;;8.88;;
66946;SDS011;53853;51.982;5.928;2024-01-30T03:57:11;8.77;;;7.75;;
66946;SDS011;53853;51.982;5.928;2024-01-30T03:59:41;9.05;;;8.15;;
66946;SDS011;53853;51.982;5.928;2024-01-30T04:02:11;10.00;;;8.55;;
66946;SDS011;53853;51.982;5.928;2024-01-30T04:04:41;10.52;;;8.52;;
66946;SDS011;53853;51.982;5.928;2024-01-30T04:07:13;8.88;;;7.20;;
66946;SDS011;53853;51.982;5.928;2024-01-30T04:09:43;9.60;;;8.15;;
66946;SDS011;53853;51.982;5.928;2024-01-30T04:12:13;12.63;;;8.32;;
66946;SDS011;53853;51.982;5.928;2024-01-30T04:14:42;9.55;;;8.50;;
66946;SDS011;53853;51.982;5.928;2024-01-30T04:17:13;9.57;;;8.38;;
66946;SDS011;53853;51.982;5.928;2024-01-30T04:19:42;9.15;;;7.75;;
66946;SDS011;53853;51.982;5.928;2024-01-30T04:22:15;9.77;;;7.95;;
66946;SDS011;53853;51.982;5.928;2024-01-30T04:24:45;10.25;;;8.23;;
66946;SDS011;53853;51.982;5.928;2024-01-30T04:27:14;8.48;;;7.10;;
66946;SDS011;53853;51.982;5.928;2024-01-30T04:29:44;10.15;;;8.32;;
66946;SDS011;53853;51.982;5.928;2024-01-30T04:32:14;9.50;;;7.88;;
66946;SDS011;53853;51.982;5.928;2024-01-30T04:34:44;10.15;;;6.95;;
66946;SDS011;53853;51.982;5.928;2024-01-30T04:37:16;9.68;;;8.48;;
66946;SDS011;53853;51.982;5.928;2024-01-30T04:39:46;8.23;;;7.32;;
66946;SDS011;53853;51.982;5.928;2024-01-30T04:42:16;9.40;;;7.35;;
66946;SDS011;53853;51.982;5.928;2024-01-30T04:44:46;9.40;;;8.20;;
66946;SDS011;53853;51.982;5.928;2024-01-30T04:47:16;9.10;;;8.15;;
66946;SDS011;53853;51.982;5.928;2024-01-30T04:49:46;8.38;;;7.22;;
66946;SDS011;53853;51.982;5.928;2024-01-30T04:52:18;9.50;;;8.30;;
66946;SDS011;53853;51.982;5.928;2024-01-30T04:54:48;11.57;;;8.52;;
66946;SDS011;53853;51.982;5.928;2024-01-30T04:57:18;11.27;;;8.05;;
66946;SDS011;53853;51.982;5.928;2024-01-30T04:59:48;8.77;;;7.78;;
66946;SDS011;53853;51.982;5.928;2024-01-30T05:02:18;9.73;;;7.45;;
66946;SDS011;53853;51.982;5.928;2024-01-30T05:04:48;8.75;;;7.85;;
66946;SDS011;53853;51.982;5.928;2024-01-30T05:07:20;8.63;;;7.53;;
66946;SDS011;53853;51.982;5.928;2024-01-30T05:09:50;9.50;;;8.48;;
66946;SDS011;53853;51.982;5.928;2024-01-30T05:12:20;7.88;;;7.07;;
66946;SDS011;53853;51.982;5.928;2024-01-30T05:14:50;8.10;;;7.30;;
66946;SDS011;53853;51.982;5.928;2024-01-30T05:17:20;9.07;;;7.93;;
66946;SDS011;53853;51.982;5.928;2024-01-30T05:19:49;8.90;;;8.00;;
66946;SDS011;53853;51.982;5.928;2024-01-30T05:22:22;7.90;;;7.10;;
66946;SDS011;53853;51.982;5.928;2024-01-30T05:24:52;9.93;;;7.45;;
66946;SDS011;53853;51.982;5.928;2024-01-30T05:27:22;9.82;;;8.20;;
66946;SDS011;53853;51.982;5.928;2024-01-30T05:29:51;9.45;;;7.45;;
66946;SDS011;53853;51.982;5.928;2024-01-30T05:32:21;10.57;;;7.53;;
66946;SDS011;53853;51.982;5.928;2024-01-30T05:34:51;9.15;;;7.38;;
66946;SDS011;53853;51.982;5.928;2024-01-30T05:37:23;10.30;;;7.50;;
66946;SDS011;53853;51.982;5.928;2024-01-30T05:39:53;9.13;;;7.40;;
66946;SDS011;53853;51.982;5.928;2024-01-30T05:42:23;8.02;;;7.22;;
66946;SDS011;53853;51.982;5.928;2024-01-30T05:44:53;7.80;;;7.00;;
66946;SDS011;53853;51.982;5.928;2024-01-30T05:47:23;8.82;;;7.30;;
66946;SDS011;53853;51.982;5.928;2024-01-30T05:49:53;9.85;;;7.75;;
66946;SDS011;53853;51.982;5.928;2024-01-30T05:52:25;8.35;;;7.45;;
66946;SDS011;53853;51.982;5.928;2024-01-30T05:54:55;8.88;;;7.93;;
66946;SDS011;53853;51.982;5.928;2024-01-30T05:57:25;8.80;;;7.90;;
66946;SDS011;53853;51.982;5.928;2024-01-30T05:59:55;9.55;;;8.15;;
66946;SDS011;53853;51.982;5.928;2024-01-30T06:02:25;10.45;;;8.00;;
66946;SDS011;53853;51.982;5.928;2024-01-30T06:04:55;8.77;;;7.10;;
66946;SDS011;53853;51.982;5.928;2024-01-30T06:07:27;10.20;;;8.35;;
66946;SDS011;53853;51.982;5.928;2024-01-30T06:09:57;9.00;;;8.00;;
66946;SDS011;53853;51.982;5.928;2024-01-30T06:12:27;10.25;;;7.75;;
66946;SDS011;53853;51.982;5.928;2024-01-30T06:14:57;8.65;;;7.72;;
66946;SDS011;53853;51.982;5.928;2024-01-30T06:17:27;8.82;;;7.57;;
66946;SDS011;53853;51.982;5.928;2024-01-30T06:19:57;8.98;;;7.60;;
66946;SDS011;53853;51.982;5.928;2024-01-30T06:22:29;8.82;;;7.20;;
66946;SDS011;53853;51.982;5.928;2024-01-30T06:24:59;9.20;;;8.15;;
66946;SDS011;53853;51.982;5.928;2024-01-30T06:27:29;7.30;;;6.32;;
66946;SDS011;53853;51.982;5.928;2024-01-30T06:29:59;9.18;;;7.15;;
66946;SDS011;53853;51.982;5.928;2024-01-30T06:32:29;8.75;;;6.82;;
66946;SDS011;53853;51.982;5.928;2024-01-30T06:35:00;11.15;;;7.68;;
66946;SDS011;53853;51.982;5.928;2024-01-30T06:37:33;8.18;;;6.75;;
66946;SDS011;53853;51.982;5.928;2024-01-30T06:40:03;9.05;;;7.55;;
66946;SDS011;53853;51.982;5.928;2024-01-30T06:42:34;8.98;;;7.15;;
66946;SDS011;53853;51.982;5.928;2024-01-30T06:45:04;8.88;;;7.97;;
66946;SDS011;53853;51.982;5.928;2024-01-30T06:47:35;9.23;;;8.20;;
66946;SDS011;53853;51.982;5.928;2024-01-30T06:50:05;10.52;;;7.80;;
66946;SDS011;53853;51.982;5.928;2024-01-30T06:52:38;9.82;;;7.43;;
66946;SDS011;53853;51.982;5.928;2024-01-30T06:55:08;7.88;;;6.97;;
66946;SDS011;53853;51.982;5.928;2024-01-30T06:57:38;7.93;;;7.13;;
66946;SDS011;53853;51.982;5.928;2024-01-30T07:00:08;9.05;;;6.93;;
66946;SDS011;53853;51.982;5.928;2024-01-30T07:02:39;8.32;;;7.15;;
66946;SDS011;53853;51.982;5.928;2024-01-30T07:05:09;8.45;;;7.00;;
66946;SDS011;53853;51.982;5.928;2024-01-30T07:07:42;7.80;;;6.60;;
66946;SDS011;53853;51.982;5.928;2024-01-30T07:10:12;7.50;;;6.65;;
66946;SDS011;53853;51.982;5.928;2024-01-30T07:12:42;8.50;;;7.20;;
66946;SDS011;53853;51.982;5.928;2024-01-30T07:15:12;9.07;;;7.65;;
66946;SDS011;53853;51.982;5.928;2024-01-30T07:17:45;6.80;;;5.90;;
66946;SDS011;53853;51.982;5.928;2024-01-30T07:20:15;6.72;;;5.20;;
66946;SDS011;53853;51.982;5.928;2024-01-30T07:22:48;6.57;;;5.85;;
66946;SDS011;53853;51.982;5.928;2024-01-30T07:25:18;6.60;;;5.40;;
66946;SDS011;53853;51.982;5.928;2024-01-30T07:27:52;6.32;;;5.60;;
66946;SDS011;53853;51.982;5.928;2024-01-30T07:30:22;5.95;;;4.93;;
66946;SDS011;53853;51.982;5.928;2024-01-30T07:32:52;6.03;;;5.15;;
66946;SDS011;53853;51.982;5.928;2024-01-30T07:35:22;4.97;;;4.10;;
66946;SDS011;53853;51.982;5.928;2024-01-30T07:37:54;6.57;;;5.28;;
66946;SDS011;53853;51.982;5.928;2024-01-30T07:40:24;4.93;;;4.35;;
66946;SDS011;53853;51.982;5.928;2024-01-30T07:42:54;6.18;;;4.25;;
66946;SDS011;53853;51.982;5.928;2024-01-30T07:45:24;4.55;;;3.67;;
66946;SDS011;53853;51.982;5.928;2024-01-30T07:47:58;5.13;;;3.85;;
66946;SDS011;53853;51.982;5.928;2024-01-30T07:50:28;4.93;;;3.88;;
66946;SDS011;53853;51.982;5.928;2024-01-30T07:53:02;4.22;;;3.40;;
66946;SDS011;53853;51.982;5.928;2024-01-30T07:55:32;7.47;;;4.30;;
66946;SDS011;53853;51.982;5.928;2024-01-30T07:58:02;4.57;;;3.90;;
66946;SDS011;53853;51.982;5.928;2024-01-30T08:00:32;4.85;;;3.72;;
66946;SDS011;53853;51.982;5.928;2024-01-30T08:03:03;3.83;;;3.38;;
66946;SDS011;53853;51.982;5.928;2024-01-30T08:05:33;4.13;;;2.97;;
66946;SDS011;53853;51.982;5.928;2024-01-30T08:08:07;8.23;;;6.80;;
66946;SDS011;53853;51.982;5.928;2024-01-30T08:10:37;9.25;;;7.10;;
66946;SDS011;53853;51.982;5.928;2024-01-30T08:13:07;8.57;;;6.88;;
66946;SDS011;53853;51.982;5.928;2024-01-30T08:15:37;9.82;;;6.47;;
66946;SDS011;53853;51.982;5.928;2024-01-30T08:18:07;8.75;;;6.32;;
66946;SDS011;53853;51.982;5.928;2024-01-30T08:20:37;9.70;;;7.13;;
66946;SDS011;53853;51.982;5.928;2024-01-30T08:23:09;7.43;;;6.32;;
66946;SDS011;53853;51.982;5.928;2024-01-30T08:25:39;7.20;;;6.15;;
66946;SDS011;53853;51.982;5.928;2024-01-30T08:28:09;8.43;;;6.25;;
66946;SDS011;53853;51.982;5.928;2024-01-30T08:30:39;6.03;;;4.57;;
66946;SDS011;53853;51.982;5.928;2024-01-30T08:33:08;7.50;;;5.63;;
66946;SDS011;53853;51.982;5.928;2024-01-30T08:35:39;5.88;;;4.82;;
66946;SDS011;53853;51.982;5.928;2024-01-30T08:38:11;7.60;;;5.95;;
66946;SDS011;53853;51.982;5.928;2024-01-30T08:40:41;6.25;;;4.28;;
66946;SDS011;53853;51.982;5.928;2024-01-30T08:43:11;6.50;;;4.60;;
66946;SDS011;53853;51.982;5.928;2024-01-30T08:45:42;4.40;;;3.72;;
66946;SDS011;53853;51.982;5.928;2024-01-30T08:48:12;4.25;;;3.38;;
66946;SDS011;53853;51.982;5.928;2024-01-30T08:50:43;7.63;;;4.72;;
66946;SDS011;53853;51.982;5.928;2024-01-30T08:53:16;4.90;;;3.78;;
66946;SDS011;53853;51.982;5.928;2024-01-30T08:55:45;8.18;;;6.30;;
66946;SDS011;53853;51.982;5.928;2024-01-30T08:58:15;7.25;;;6.18;;
66946;SDS011;53853;51.982;5.928;2024-01-30T09:00:46;9.73;;;7.78;;
66946;SDS011;53853;51.982;5.928;2024-01-30T09:03:17;8.73;;;6.50;;
66946;SDS011;53853;51.982;5.928;2024-01-30T09:05:47;9.10;;;6.82;;
66946;SDS011;53853;51.982;5.928;2024-01-30T09:08:20;8.13;;;5.57;;
66946;SDS011;53853;51.982;5.928;2024-01-30T09:10:50;6.25;;;5.35;;
66946;SDS011;53853;51.982;5.928;2024-01-30T09:13:20;13.25;;;9.00;;
66946;SDS011;53853;51.982;5.928;2024-01-30T09:15:50;9.10;;;6.68;;
66946;SDS011;53853;51.982;5.928;2024-01-30T09:18:21;12.35;;;9.15;;
66946;SDS011;53853;51.982;5.928;2024-01-30T09:20:50;13.90;;;10.25;;
66946;SDS011;53853;51.982;5.928;2024-01-30T09:23:23;9.70;;;7.95;;
66946;SDS011;53853;51.982;5.928;2024-01-30T09:25:53;10.95;;;8.15;;
66946;SDS011;53853;51.982;5.928;2024-01-30T09:28:23;13.18;;;9.15;;
66946;SDS011;53853;51.982;5.928;2024-01-30T09:30:53;9.80;;;7.03;;
66946;SDS011;53853;51.982;5.928;2024-01-30T09:33:23;12.57;;;7.82;;
66946;SDS011;53853;51.982;5.928;2024-01-30T09:35:53;14.18;;;7.53;;
66946;SDS011;53853;51.982;5.928;2024-01-30T09:38:26;7.10;;;5.85;;
66946;SDS011;53853;51.982;5.928;2024-01-30T09:40:56;11.65;;;8.30;;
66946;SDS011;53853;51.982;5.928;2024-01-30T09:43:29;12.57;;;8.63;;
66946;SDS011;53853;51.982;5.928;2024-01-30T09:46:02;14.23;;;8.68;;
66946;SDS011;53853;51.982;5.928;2024-01-30T09:48:33;13.40;;;7.60;;
66946;SDS011;53853;51.982;5.928;2024-01-30T09:51:05;12.02;;;8.07;;
66946;SDS011;53853;51.982;5.928;2024-01-30T09:53:38;15.60;;;9.48;;
66946;SDS011;53853;51.982;5.928;2024-01-30T09:56:10;10.13;;;7.82;;
66946;SDS011;53853;51.982;5.928;2024-01-30T09:58:42;9.07;;;6.97;;
66946;SDS011;53853;51.982;5.928;2024-01-30T10:01:12;8.40;;;6.50;;
66946;SDS011;53853;51.982;5.928;2024-01-30T10:03:44;9.32;;;7.60;;
66946;SDS011;53853;51.982;5.928;2024-01-30T10:06:14;12.90;;;8.55;;
66946;SDS011;53853;51.982;5.928;2024-01-30T10:08:47;10.50;;;8.10;;
66946;SDS011;53853;51.982;5.928;2024-01-30T10:11:17;7.65;;;6.28;;
66946;SDS011;53853;51.982;5.928;2024-01-30T10:13:47;12.20;;;8.45;;
66946;SDS011;53853;51.982;5.928;2024-01-30T10:16:17;9.70;;;7.40;;
66946;SDS011;53853;51.982;5.928;2024-01-30T10:18:47;15.10;;;8.82;;
66946;SDS011;53853;51.982;5.928;2024-01-30T10:21:17;15.43;;;8.75;;
66946;SDS011;53853;51.982;5.928;2024-01-30T10:23:50;9.63;;;7.78;;
66946;SDS011;53853;51.982;5.928;2024-01-30T10:26:20;10.70;;;7.43;;
66946;SDS011;53853;51.982;5.928;2024-01-30T10:28:50;10.82;;;7.63;;
66946;SDS011;53853;51.982;5.928;2024-01-30T10:31:20;9.57;;;7.95;;
66946;SDS011;53853;51.982;5.928;2024-01-30T10:33:50;11.48;;;8.85;;
66946;SDS011;53853;51.982;5.928;2024-01-30T10:36:20;11.25;;;7.85;;
66946;SDS011;53853;51.982;5.928;2024-01-30T10:38:59;10.77;;;7.93;;
66946;SDS011;53853;51.982;5.928;2024-01-30T10:41:32;13.23;;;8.00;;
66946;SDS011;53853;51.982;5.928;2024-01-30T10:44:11;9.43;;;7.65;;
66946;SDS011;53853;51.982;5.928;2024-01-30T10:46:45;12.25;;;8.23;;
66946;SDS011;53853;51.982;5.928;2024-01-30T10:49:19;12.10;;;8.43;;
66946;SDS011;53853;51.982;5.928;2024-01-30T10:51:50;11.00;;;7.60;;
66946;SDS011;53853;51.982;5.928;2024-01-30T10:54:23;10.93;;;7.18;;
66946;SDS011;53853;51.982;5.928;2024-01-30T10:56:55;11.27;;;7.57;;
66946;SDS011;53853;51.982;5.928;2024-01-30T10:59:29;10.90;;;7.75;;
66946;SDS011;53853;51.982;5.928;2024-01-30T11:02:00;12.00;;;7.50;;
66946;SDS011;53853;51.982;5.928;2024-01-30T11:04:35;12.30;;;8.98;;
66946;SDS011;53853;51.982;5.928;2024-01-30T11:07:13;13.73;;;8.93;;
66946;SDS011;53853;51.982;5.928;2024-01-30T11:09:53;12.98;;;8.50;;
66946;SDS011;53853;51.982;5.928;2024-01-30T11:12:29;16.52;;;10.43;;
66946;SDS011;53853;51.982;5.928;2024-01-30T11:15:02;11.48;;;8.10;;
66946;SDS011;53853;51.982;5.928;2024-01-30T11:17:39;13.65;;;9.10;;
66946;SDS011;53853;51.982;5.928;2024-01-30T11:20:10;14.38;;;8.50;;
66946;SDS011;53853;51.982;5.928;2024-01-30T11:22:44;11.60;;;9.20;;
66946;SDS011;53853;51.982;5.928;2024-01-30T11:25:17;11.23;;;8.30;;
66946;SDS011;53853;51.982;5.928;2024-01-30T11:27:49;12.05;;;8.27;;
66946;SDS011;53853;51.982;5.928;2024-01-30T11:30:23;15.50;;;8.68;;
66946;SDS011;53853;51.982;5.928;2024-01-30T11:33:00;15.05;;;7.75;;
66946;SDS011;53853;51.982;5.928;2024-01-30T11:35:33;12.38;;;8.00;;
66946;SDS011;53853;51.982;5.928;2024-01-30T11:38:05;12.13;;;7.70;;
66946;SDS011;53853;51.982;5.928;2024-01-30T11:40:39;12.80;;;8.18;;
66946;SDS011;53853;51.982;5.928;2024-01-30T11:43:08;12.35;;;8.38;;
66946;SDS011;53853;51.982;5.928;2024-01-30T11:45:38;10.70;;;7.55;;
66946;SDS011;53853;51.982;5.928;2024-01-30T11:48:09;9.23;;;7.97;;
66946;SDS011;53853;51.982;5.928;2024-01-30T11:50:41;10.00;;;8.27;;
66946;SDS011;53853;51.982;5.928;2024-01-30T11:53:11;11.48;;;7.93;;
66946;SDS011;53853;51.982;5.928;2024-01-30T11:55:44;9.38;;;7.35;;
66946;SDS011;53853;51.982;5.928;2024-01-30T11:58:18;10.25;;;7.30;;
66946;SDS011;53853;51.982;5.928;2024-01-30T12:00:54;11.25;;;7.53;;
66946;SDS011;53853;51.982;5.928;2024-01-30T12:03:25;10.98;;;8.52;;
66946;SDS011;53853;51.982;5.928;2024-01-30T12:05:56;12.45;;;7.75;;
66946;SDS011;53853;51.982;5.928;2024-01-30T12:08:27;10.80;;;7.95;;
66946;SDS011;53853;51.982;5.928;2024-01-30T12:10:59;14.10;;;8.52;;
66946;SDS011;53853;51.982;5.928;2024-01-30T12:16:00;9.10;;;7.20;;
66946;SDS011;53853;51.982;5.928;2024-01-30T12:18:30;13.23;;;9.32;;
66946;SDS011;53853;51.982;5.928;2024-01-30T12:21:00;8.88;;;7.70;;
66946;SDS011;53853;51.982;5.928;2024-01-30T12:23:31;11.88;;;8.48;;
66946;SDS011;53853;51.982;5.928;2024-01-30T12:26:03;11.48;;;7.38;;
66946;SDS011;53853;51.982;5.928;2024-01-30T12:28:34;12.60;;;8.55;;
66946;SDS011;53853;51.982;5.928;2024-01-30T12:31:04;11.25;;;8.18;;
66946;SDS011;53853;51.982;5.928;2024-01-30T12:33:35;14.68;;;8.55;;
66946;SDS011;53853;51.982;5.928;2024-01-30T12:36:05;10.88;;;7.88;;
66946;SDS011;53853;51.982;5.928;2024-01-30T12:38:36;10.48;;;7.18;;
66946;SDS011;53853;51.982;5.928;2024-01-30T12:41:09;15.48;;;7.20;;
66946;SDS011;53853;51.982;5.928;2024-01-30T12:43:40;10.80;;;6.15;;
66946;SDS011;53853;51.982;5.928;2024-01-30T12:46:10;8.65;;;4.75;;
66946;SDS011;53853;51.982;5.928;2024-01-30T12:48:40;9.32;;;3.90;;
66946;SDS011;53853;51.982;5.928;2024-01-30T12:51:10;9.13;;;3.33;;
66946;SDS011;53853;51.982;5.928;2024-01-30T12:53:39;10.98;;;3.78;;
66946;SDS011;53853;51.982;5.928;2024-01-30T12:56:12;8.63;;;3.47;;
66946;SDS011;53853;51.982;5.928;2024-01-30T12:58:43;5.88;;;2.97;;
66946;SDS011;53853;51.982;5.928;2024-01-30T13:01:12;6.80;;;2.85;;
66946;SDS011;53853;51.982;5.928;2024-01-30T13:03:42;8.07;;;3.35;;
66946;SDS011;53853;51.982;5.928;2024-01-30T13:06:12;7.13;;;2.70;;
66946;SDS011;53853;51.982;5.928;2024-01-30T13:08:42;4.78;;;2.70;;
66946;SDS011;53853;51.982;5.928;2024-01-30T13:11:15;5.78;;;2.92;;
66946;SDS011;53853;51.982;5.928;2024-01-30T13:13:44;5.43;;;2.53;;
66946;SDS011;53853;51.982;5.928;2024-01-30T13:16:14;7.82;;;2.80;;
66946;SDS011;53853;51.982;5.928;2024-01-30T13:18:44;4.10;;;2.13;;
66946;SDS011;53853;51.982;5.928;2024-01-30T13:21:14;5.90;;;2.10;;
66946;SDS011;53853;51.982;5.928;2024-01-30T13:23:44;8.38;;;3.40;;
66946;SDS011;53853;51.982;5.928;2024-01-30T13:26:16;6.28;;;3.05;;
66946;SDS011;53853;51.982;5.928;2024-01-30T13:28:46;7.07;;;2.28;;
66946;SDS011;53853;51.982;5.928;2024-01-30T13:31:16;5.63;;;2.00;;
66946;SDS011;53853;51.982;5.928;2024-01-30T13:33:46;5.88;;;1.70;;
66946;SDS011;53853;51.982;5.928;2024-01-30T13:36:16;3.28;;;1.40;;
66946;SDS011;53853;51.982;5.928;2024-01-30T13:38:46;4.00;;;1.73;;
66946;SDS011;53853;51.982;5.928;2024-01-30T13:41:19;4.28;;;1.95;;
66946;SDS011;53853;51.982;5.928;2024-01-30T13:43:49;3.22;;;1.50;;
66946;SDS011;53853;51.982;5.928;2024-01-30T13:46:19;3.30;;;1.60;;
66946;SDS011;53853;51.982;5.928;2024-01-30T13:48:50;4.07;;;1.92;;
66946;SDS011;53853;51.982;5.928;2024-01-30T13:51:20;6.65;;;2.30;;
66946;SDS011;53853;51.982;5.928;2024-01-30T13:53:50;7.40;;;2.35;;
66946;SDS011;53853;51.982;5.928;2024-01-30T13:56:22;4.78;;;2.55;;
66946;SDS011;53853;51.982;5.928;2024-01-30T13:58:52;8.30;;;3.33;;
66946;SDS011;53853;51.982;5.928;2024-01-30T14:01:23;10.07;;;3.55;;
66946;SDS011;53853;51.982;5.928;2024-01-30T14:03:53;6.40;;;2.90;;
66946;SDS011;53853;51.982;5.928;2024-01-30T14:06:23;9.30;;;3.15;;
66946;SDS011;53853;51.982;5.928;2024-01-30T14:08:53;7.90;;;3.75;;
66946;SDS011;53853;51.982;5.928;2024-01-30T14:11:26;8.23;;;3.60;;
66946;SDS011;53853;51.982;5.928;2024-01-30T14:13:56;9.40;;;4.63;;
66946;SDS011;53853;51.982;5.928;2024-01-30T14:16:26;9.10;;;3.95;;
66946;SDS011;53853;51.982;5.928;2024-01-30T14:18:56;8.45;;;4.38;;
66946;SDS011;53853;51.982;5.928;2024-01-30T14:21:26;9.57;;;4.72;;
66946;SDS011;53853;51.982;5.928;2024-01-30T14:23:55;9.18;;;5.40;;
66946;SDS011;53853;51.982;5.928;2024-01-30T14:26:28;6.30;;;4.03;;
66946;SDS011;53853;51.982;5.928;2024-01-30T14:28:58;7.00;;;4.68;;
66946;SDS011;53853;51.982;5.928;2024-01-30T14:31:28;11.25;;;5.78;;
66946;SDS011;53853;51.982;5.928;2024-01-30T14:33:57;9.60;;;5.35;;
66946;SDS011;53853;51.982;5.928;2024-01-30T14:36:27;8.10;;;4.10;;
66946;SDS011;53853;51.982;5.928;2024-01-30T14:38:57;9.10;;;3.50;;
66946;SDS011;53853;51.982;5.928;2024-01-30T14:41:29;8.40;;;3.78;;
66946;SDS011;53853;51.982;5.928;2024-01-30T14:43:59;9.27;;;4.25;;
66946;SDS011;53853;51.982;5.928;2024-01-30T14:46:31;7.90;;;3.50;;
66946;SDS011;53853;51.982;5.928;2024-01-30T14:49:01;9.68;;;4.22;;
66946;SDS011;53853;51.982;5.928;2024-01-30T14:51:33;8.70;;;3.70;;
66946;SDS011;53853;51.982;5.928;2024-01-30T14:54:03;7.43;;;3.63;;
66946;SDS011;53853;51.982;5.928;2024-01-30T14:56:36;15.95;;;9.02;;
66946;SDS011;53853;51.982;5.928;2024-01-30T14:59:06;9.40;;;4.55;;
66946;SDS011;53853;51.982;5.928;2024-01-30T15:01:36;8.93;;;4.90;;
66946;SDS011;53853;51.982;5.928;2024-01-30T15:04:05;7.78;;;3.72;;